sensor_id;sensor_type;location;lat;lon;timestamp;P1;durP1;ratioP1;P2;durP2;ratioP2
18455;SDS011;9357;49.900;8.208;2022-07-12T00:00:38;4.07;;;2.70;;
18455;SDS011;9357;49.900;8.208;2022-07-12T00:02:10;3.00;;;2.80;;
18455;SDS011;9357;49.900;8.208;2022-07-12T00:03:43;2.90;;;2.60;;
18455;SDS011;9357;49.900;8.208;2022-07-12T00:05:17;2.80;;;2.60;;
18455;SDS011;9357;49.900;8.208;2022-07-12T00:06:50;2.83;;;2.57;;
18455;SDS011;9357;49.900;8.208;2022-07-12T00:08:22;3.03;;;2.73;;
18455;SDS011;9357;49.900;8.208;2022-07-12T00:09:55;3.73;;;2.63;;
18455;SDS011;9357;49.900;8.208;2022-07-12T00:11:28;3.90;;;2.63;;
18455;SDS011;9357;49.900;8.208;2022-07-12T00:12:59;4.17;;;2.73;;
18455;SDS011;9357;49.900;8.208;2022-07-12T00:14:32;2.83;;;2.60;;
18455;SDS011;9357;49.900;8.208;2022-07-12T00:16:05;2.90;;;2.60;;
18455;SDS011;9357;49.900;8.208;2022-07-12T00:17:38;3.50;;;2.70;;
18455;SDS011;9357;49.900;8.208;2022-07-12T00:19:11;2.50;;;2.30;;
18455;SDS011;9357;49.900;8.208;2022-07-12T00:20:45;4.13;;;2.83;;
18455;SDS011;9357;49.900;8.208;2022-07-12T00:22:17;3.57;;;2.60;;
18455;SDS011;9357;49.900;8.208;2022-07-12T00:23:50;3.00;;;2.70;;
18455;SDS011;9357;49.900;8.208;2022-07-12T00:25:23;6.67;;;2.77;;
18455;SDS011;9357;49.900;8.208;2022-07-12T00:26:57;3.30;;;2.63;;
18455;SDS011;9357;49.900;8.208;2022-07-12T00:28:30;3.07;;;2.60;;
18455;SDS011;9357;49.900;8.208;2022-07-12T00:30:02;3.00;;;2.30;;
18455;SDS011;9357;49.900;8.208;2022-07-12T00:31:36;2.70;;;2.50;;
18455;SDS011;9357;49.900;8.208;2022-07-12T00:33:08;2.63;;;2.37;;
18455;SDS011;9357;49.900;8.208;2022-07-12T00:34:40;2.60;;;2.40;;
18455;SDS011;9357;49.900;8.208;2022-07-12T00:36:15;2.60;;;2.37;;
18455;SDS011;9357;49.900;8.208;2022-07-12T00:37:47;2.37;;;2.27;;
18455;SDS011;9357;49.900;8.208;2022-07-12T00:39:20;3.33;;;2.43;;
18455;SDS011;9357;49.900;8.208;2022-07-12T00:40:52;2.83;;;2.63;;
18455;SDS011;9357;49.900;8.208;2022-07-12T00:42:25;2.57;;;2.20;;
18455;SDS011;9357;49.900;8.208;2022-07-12T00:43:58;2.53;;;2.33;;
18455;SDS011;9357;49.900;8.208;2022-07-12T00:45:31;2.77;;;2.37;;
18455;SDS011;9357;49.900;8.208;2022-07-12T00:47:04;4.57;;;2.30;;
18455;SDS011;9357;49.900;8.208;2022-07-12T00:48:38;3.57;;;2.40;;
18455;SDS011;9357;49.900;8.208;2022-07-12T00:50:11;3.40;;;2.63;;
18455;SDS011;9357;49.900;8.208;2022-07-12T00:51:47;2.50;;;2.30;;
18455;SDS011;9357;49.900;8.208;2022-07-12T00:53:20;3.77;;;2.90;;
18455;SDS011;9357;49.900;8.208;2022-07-12T00:54:54;3.73;;;2.60;;
18455;SDS011;9357;49.900;8.208;2022-07-12T00:56:26;3.20;;;2.63;;
18455;SDS011;9357;49.900;8.208;2022-07-12T00:58:00;3.53;;;2.60;;
18455;SDS011;9357;49.900;8.208;2022-07-12T00:59:32;5.10;;;2.60;;
18455;SDS011;9357;49.900;8.208;2022-07-12T01:01:04;3.97;;;2.50;;
18455;SDS011;9357;49.900;8.208;2022-07-12T01:02:37;2.67;;;2.47;;
18455;SDS011;9357;49.900;8.208;2022-07-12T01:04:11;2.67;;;2.50;;
18455;SDS011;9357;49.900;8.208;2022-07-12T01:05:44;2.87;;;2.63;;
18455;SDS011;9357;49.900;8.208;2022-07-12T01:07:18;2.40;;;2.30;;
18455;SDS011;9357;49.900;8.208;2022-07-12T01:08:51;2.60;;;2.40;;
18455;SDS011;9357;49.900;8.208;2022-07-12T01:10:24;3.60;;;2.70;;
18455;SDS011;9357;49.900;8.208;2022-07-12T01:11:56;2.60;;;2.40;;
18455;SDS011;9357;49.900;8.208;2022-07-12T01:13:29;3.50;;;2.67;;
18455;SDS011;9357;49.900;8.208;2022-07-12T01:15:02;4.10;;;2.47;;
18455;SDS011;9357;49.900;8.208;2022-07-12T01:16:36;3.67;;;2.60;;
18455;SDS011;9357;49.900;8.208;2022-07-12T01:18:09;2.67;;;2.47;;
18455;SDS011;9357;49.900;8.208;2022-07-12T01:19:43;2.40;;;2.20;;
18455;SDS011;9357;49.900;8.208;2022-07-12T01:21:18;2.50;;;2.30;;
18455;SDS011;9357;49.900;8.208;2022-07-12T01:22:53;3.57;;;2.27;;
18455;SDS011;9357;49.900;8.208;2022-07-12T01:24:28;2.90;;;2.60;;
18455;SDS011;9357;49.900;8.208;2022-07-12T01:26:01;2.80;;;2.60;;
18455;SDS011;9357;49.900;8.208;2022-07-12T01:27:36;2.70;;;2.50;;
18455;SDS011;9357;49.900;8.208;2022-07-12T01:29:09;2.70;;;2.50;;
18455;SDS011;9357;49.900;8.208;2022-07-12T01:30:42;2.57;;;2.33;;
18455;SDS011;9357;49.900;8.208;2022-07-12T01:32:16;2.60;;;2.40;;
18455;SDS011;9357;49.900;8.208;2022-07-12T01:33:57;2.20;;;2.10;;
18455;SDS011;9357;49.900;8.208;2022-07-12T01:35:31;3.10;;;2.37;;
18455;SDS011;9357;49.900;8.208;2022-07-12T01:37:04;2.33;;;2.20;;
18455;SDS011;9357;49.900;8.208;2022-07-12T01:38:37;3.03;;;2.40;;
18455;SDS011;9357;49.900;8.208;2022-07-12T01:40:11;2.33;;;2.13;;
18455;SDS011;9357;49.900;8.208;2022-07-12T01:41:45;2.40;;;2.20;;
18455;SDS011;9357;49.900;8.208;2022-07-12T01:43:17;2.20;;;2.10;;
18455;SDS011;9357;49.900;8.208;2022-07-12T01:44:50;2.40;;;2.30;;
18455;SDS011;9357;49.900;8.208;2022-07-12T01:46:24;2.20;;;2.10;;
18455;SDS011;9357;49.900;8.208;2022-07-12T01:47:57;2.57;;;2.40;;
18455;SDS011;9357;49.900;8.208;2022-07-12T01:49:30;2.60;;;2.40;;
18455;SDS011;9357;49.900;8.208;2022-07-12T01:51:02;2.50;;;2.30;;
18455;SDS011;9357;49.900;8.208;2022-07-12T01:52:36;2.50;;;2.37;;
18455;SDS011;9357;49.900;8.208;2022-07-12T01:54:12;2.37;;;2.23;;
18455;SDS011;9357;49.900;8.208;2022-07-12T01:55:44;2.77;;;2.30;;
18455;SDS011;9357;49.900;8.208;2022-07-12T01:57:17;2.50;;;2.30;;
18455;SDS011;9357;49.900;8.208;2022-07-12T01:58:50;2.70;;;2.50;;
18455;SDS011;9357;49.900;8.208;2022-07-12T02:00:23;3.33;;;2.60;;
18455;SDS011;9357;49.900;8.208;2022-07-12T02:01:56;2.70;;;2.50;;
18455;SDS011;9357;49.900;8.208;2022-07-12T02:03:29;2.60;;;2.40;;
18455;SDS011;9357;49.900;8.208;2022-07-12T02:05:02;2.43;;;2.30;;
18455;SDS011;9357;49.900;8.208;2022-07-12T02:06:35;2.90;;;2.40;;
18455;SDS011;9357;49.900;8.208;2022-07-12T02:08:08;2.73;;;2.30;;
18455;SDS011;9357;49.900;8.208;2022-07-12T02:09:42;2.80;;;2.50;;
18455;SDS011;9357;49.900;8.208;2022-07-12T02:11:15;3.13;;;2.60;;
18455;SDS011;9357;49.900;8.208;2022-07-12T02:12:47;2.53;;;2.33;;
18455;SDS011;9357;49.900;8.208;2022-07-12T02:14:21;2.40;;;2.20;;
18455;SDS011;9357;49.900;8.208;2022-07-12T02:15:53;2.60;;;2.40;;
18455;SDS011;9357;49.900;8.208;2022-07-12T02:17:25;2.70;;;2.50;;
18455;SDS011;9357;49.900;8.208;2022-07-12T02:18:58;2.60;;;2.40;;
18455;SDS011;9357;49.900;8.208;2022-07-12T02:20:31;2.47;;;2.27;;
18455;SDS011;9357;49.900;8.208;2022-07-12T02:22:03;2.80;;;2.60;;
18455;SDS011;9357;49.900;8.208;2022-07-12T02:23:36;2.93;;;2.47;;
18455;SDS011;9357;49.900;8.208;2022-07-12T02:25:10;2.47;;;2.27;;
18455;SDS011;9357;49.900;8.208;2022-07-12T02:26:43;2.57;;;2.37;;
18455;SDS011;9357;49.900;8.208;2022-07-12T02:28:15;2.60;;;2.20;;
18455;SDS011;9357;49.900;8.208;2022-07-12T02:29:48;6.33;;;2.53;;
18455;SDS011;9357;49.900;8.208;2022-07-12T02:31:21;2.43;;;2.30;;
18455;SDS011;9357;49.900;8.208;2022-07-12T02:32:53;4.87;;;2.63;;
18455;SDS011;9357;49.900;8.208;2022-07-12T02:34:26;3.43;;;2.50;;
18455;SDS011;9357;49.900;8.208;2022-07-12T02:35:58;3.10;;;2.80;;
18455;SDS011;9357;49.900;8.208;2022-07-12T02:37:30;3.53;;;2.50;;
18455;SDS011;9357;49.900;8.208;2022-07-12T02:39:03;3.17;;;2.87;;
18455;SDS011;9357;49.900;8.208;2022-07-12T02:40:37;2.83;;;2.63;;
18455;SDS011;9357;49.900;8.208;2022-07-12T02:42:24;2.87;;;2.63;;
18455;SDS011;9357;49.900;8.208;2022-07-12T02:43:57;3.13;;;2.80;;
18455;SDS011;9357;49.900;8.208;2022-07-12T02:45:29;2.83;;;2.63;;
18455;SDS011;9357;49.900;8.208;2022-07-12T02:47:02;4.20;;;2.30;;
18455;SDS011;9357;49.900;8.208;2022-07-12T02:48:35;2.93;;;2.73;;
18455;SDS011;9357;49.900;8.208;2022-07-12T02:50:07;3.57;;;2.87;;
18455;SDS011;9357;49.900;8.208;2022-07-12T02:51:40;3.40;;;3.10;;
18455;SDS011;9357;49.900;8.208;2022-07-12T02:53:13;3.57;;;3.00;;
18455;SDS011;9357;49.900;8.208;2022-07-12T02:54:45;3.90;;;3.10;;
18455;SDS011;9357;49.900;8.208;2022-07-12T02:56:19;3.43;;;3.23;;
18455;SDS011;9357;49.900;8.208;2022-07-12T02:57:52;3.60;;;3.30;;
18455;SDS011;9357;49.900;8.208;2022-07-12T02:59:25;4.17;;;3.50;;
18455;SDS011;9357;49.900;8.208;2022-07-12T03:00:57;3.70;;;3.40;;
18455;SDS011;9357;49.900;8.208;2022-07-12T03:02:29;4.37;;;3.60;;
18455;SDS011;9357;49.900;8.208;2022-07-12T03:04:02;3.43;;;3.13;;
18455;SDS011;9357;49.900;8.208;2022-07-12T03:05:35;3.50;;;3.20;;
18455;SDS011;9357;49.900;8.208;2022-07-12T03:07:07;3.70;;;3.40;;
18455;SDS011;9357;49.900;8.208;2022-07-12T03:08:40;4.27;;;3.90;;
18455;SDS011;9357;49.900;8.208;2022-07-12T03:10:14;4.23;;;3.83;;
18455;SDS011;9357;49.900;8.208;2022-07-12T03:11:47;3.93;;;3.53;;
18455;SDS011;9357;49.900;8.208;2022-07-12T03:13:19;4.20;;;3.80;;
18455;SDS011;9357;49.900;8.208;2022-07-12T03:14:53;5.13;;;3.97;;
18455;SDS011;9357;49.900;8.208;2022-07-12T03:16:26;4.20;;;3.80;;
18455;SDS011;9357;49.900;8.208;2022-07-12T03:18:00;4.40;;;4.00;;
18455;SDS011;9357;49.900;8.208;2022-07-12T03:19:33;5.03;;;4.53;;
18455;SDS011;9357;49.900;8.208;2022-07-12T03:21:06;4.27;;;3.87;;
18455;SDS011;9357;49.900;8.208;2022-07-12T03:22:39;5.07;;;4.57;;
18455;SDS011;9357;49.900;8.208;2022-07-12T03:24:12;4.83;;;4.30;;
18455;SDS011;9357;49.900;8.208;2022-07-12T03:25:44;5.60;;;4.50;;
18455;SDS011;9357;49.900;8.208;2022-07-12T03:27:18;6.57;;;4.53;;
18455;SDS011;9357;49.900;8.208;2022-07-12T03:28:51;4.20;;;3.80;;
18455;SDS011;9357;49.900;8.208;2022-07-12T03:30:24;5.40;;;4.80;;
18455;SDS011;9357;49.900;8.208;2022-07-12T03:31:56;6.03;;;4.90;;
18455;SDS011;9357;49.900;8.208;2022-07-12T03:33:29;5.10;;;4.60;;
18455;SDS011;9357;49.900;8.208;2022-07-12T03:35:04;6.00;;;4.90;;
18455;SDS011;9357;49.900;8.208;2022-07-12T03:36:36;5.47;;;4.80;;
18455;SDS011;9357;49.900;8.208;2022-07-12T03:38:09;5.30;;;4.70;;
18455;SDS011;9357;49.900;8.208;2022-07-12T03:39:42;6.53;;;5.20;;
18455;SDS011;9357;49.900;8.208;2022-07-12T03:41:14;5.97;;;5.33;;
18455;SDS011;9357;49.900;8.208;2022-07-12T03:42:49;6.20;;;5.60;;
18455;SDS011;9357;49.900;8.208;2022-07-12T03:44:24;6.13;;;5.53;;
18455;SDS011;9357;49.900;8.208;2022-07-12T03:45:57;8.20;;;5.70;;
18455;SDS011;9357;49.900;8.208;2022-07-12T03:47:30;7.07;;;5.93;;
18455;SDS011;9357;49.900;8.208;2022-07-12T03:49:02;6.70;;;6.07;;
18455;SDS011;9357;49.900;8.208;2022-07-12T03:50:36;8.30;;;6.50;;
18455;SDS011;9357;49.900;8.208;2022-07-12T03:52:09;6.73;;;5.80;;
18455;SDS011;9357;49.900;8.208;2022-07-12T03:53:40;9.07;;;6.10;;
18455;SDS011;9357;49.900;8.208;2022-07-12T03:55:13;6.20;;;5.60;;
18455;SDS011;9357;49.900;8.208;2022-07-12T03:56:46;8.13;;;6.33;;
18455;SDS011;9357;49.900;8.208;2022-07-12T03:58:38;7.53;;;6.30;;
18455;SDS011;9357;49.900;8.208;2022-07-12T04:00:11;6.43;;;5.83;;
18455;SDS011;9357;49.900;8.208;2022-07-12T04:01:44;7.60;;;6.77;;
18455;SDS011;9357;49.900;8.208;2022-07-12T04:03:16;7.77;;;6.67;;
18455;SDS011;9357;49.900;8.208;2022-07-12T04:04:49;7.87;;;6.60;;
18455;SDS011;9357;49.900;8.208;2022-07-12T04:06:21;7.17;;;6.47;;
18455;SDS011;9357;49.900;8.208;2022-07-12T04:07:54;7.83;;;7.03;;
18455;SDS011;9357;49.900;8.208;2022-07-12T04:09:27;7.97;;;6.83;;
18455;SDS011;9357;49.900;8.208;2022-07-12T04:10:59;10.50;;;7.23;;
18455;SDS011;9357;49.900;8.208;2022-07-12T04:12:32;8.23;;;7.43;;
18455;SDS011;9357;49.900;8.208;2022-07-12T04:14:06;7.53;;;6.60;;
18455;SDS011;9357;49.900;8.208;2022-07-12T04:15:39;7.77;;;6.70;;
18455;SDS011;9357;49.900;8.208;2022-07-12T04:17:12;8.93;;;6.87;;
18455;SDS011;9357;49.900;8.208;2022-07-12T04:18:43;9.13;;;7.27;;
18455;SDS011;9357;49.900;8.208;2022-07-12T04:20:16;10.00;;;8.00;;
18455;SDS011;9357;49.900;8.208;2022-07-12T04:21:50;10.37;;;8.73;;
18455;SDS011;9357;49.900;8.208;2022-07-12T04:23:22;10.47;;;8.77;;
18455;SDS011;9357;49.900;8.208;2022-07-12T04:24:55;10.07;;;8.53;;
18455;SDS011;9357;49.900;8.208;2022-07-12T04:26:28;10.60;;;8.83;;
18455;SDS011;9357;49.900;8.208;2022-07-12T04:28:00;10.43;;;8.87;;
18455;SDS011;9357;49.900;8.208;2022-07-12T04:29:35;12.13;;;9.20;;
18455;SDS011;9357;49.900;8.208;2022-07-12T04:31:06;9.67;;;8.57;;
18455;SDS011;9357;49.900;8.208;2022-07-12T04:32:40;12.30;;;9.47;;
18455;SDS011;9357;49.900;8.208;2022-07-12T04:34:13;11.17;;;8.90;;
18455;SDS011;9357;49.900;8.208;2022-07-12T04:35:48;10.57;;;9.13;;
18455;SDS011;9357;49.900;8.208;2022-07-12T04:37:21;14.13;;;9.40;;
18455;SDS011;9357;49.900;8.208;2022-07-12T04:38:52;11.27;;;8.70;;
18455;SDS011;9357;49.900;8.208;2022-07-12T04:40:25;10.13;;;9.03;;
18455;SDS011;9357;49.900;8.208;2022-07-12T04:41:58;10.83;;;8.80;;
18455;SDS011;9357;49.900;8.208;2022-07-12T04:43:31;10.80;;;8.80;;
18455;SDS011;9357;49.900;8.208;2022-07-12T04:45:06;13.10;;;8.93;;
18455;SDS011;9357;49.900;8.208;2022-07-12T04:46:39;10.17;;;8.63;;
18455;SDS011;9357;49.900;8.208;2022-07-12T04:48:12;10.97;;;8.60;;
18455;SDS011;9357;49.900;8.208;2022-07-12T04:49:45;10.97;;;9.43;;
18455;SDS011;9357;49.900;8.208;2022-07-12T04:51:18;11.80;;;9.47;;
18455;SDS011;9357;49.900;8.208;2022-07-12T04:52:50;11.67;;;9.40;;
18455;SDS011;9357;49.900;8.208;2022-07-12T04:54:23;12.50;;;9.97;;
18455;SDS011;9357;49.900;8.208;2022-07-12T04:55:56;11.47;;;10.27;;
18455;SDS011;9357;49.900;8.208;2022-07-12T04:57:30;13.10;;;9.93;;
18455;SDS011;9357;49.900;8.208;2022-07-12T04:59:02;13.03;;;10.10;;
18455;SDS011;9357;49.900;8.208;2022-07-12T05:00:37;12.07;;;10.27;;
18455;SDS011;9357;49.900;8.208;2022-07-12T05:02:09;12.13;;;9.93;;
18455;SDS011;9357;49.900;8.208;2022-07-12T05:03:42;12.00;;;9.97;;
18455;SDS011;9357;49.900;8.208;2022-07-12T05:05:14;12.33;;;10.37;;
18455;SDS011;9357;49.900;8.208;2022-07-12T05:06:47;11.17;;;9.97;;
18455;SDS011;9357;49.900;8.208;2022-07-12T05:08:21;11.73;;;10.00;;
18455;SDS011;9357;49.900;8.208;2022-07-12T05:09:53;12.23;;;9.80;;
18455;SDS011;9357;49.900;8.208;2022-07-12T05:11:25;12.10;;;10.13;;
18455;SDS011;9357;49.900;8.208;2022-07-12T05:12:58;11.90;;;10.60;;
18455;SDS011;9357;49.900;8.208;2022-07-12T05:14:30;14.83;;;10.67;;
18455;SDS011;9357;49.900;8.208;2022-07-12T05:16:06;11.57;;;10.37;;
18455;SDS011;9357;49.900;8.208;2022-07-12T05:17:40;11.63;;;10.10;;
18455;SDS011;9357;49.900;8.208;2022-07-12T05:19:12;11.97;;;9.90;;
18455;SDS011;9357;49.900;8.208;2022-07-12T05:20:46;14.00;;;10.07;;
18455;SDS011;9357;49.900;8.208;2022-07-12T05:22:22;11.73;;;10.17;;
18455;SDS011;9357;49.900;8.208;2022-07-12T05:23:55;11.33;;;9.83;;
18455;SDS011;9357;49.900;8.208;2022-07-12T05:25:28;11.23;;;9.93;;
18455;SDS011;9357;49.900;8.208;2022-07-12T05:27:00;12.40;;;9.50;;
18455;SDS011;9357;49.900;8.208;2022-07-12T05:28:32;10.80;;;9.37;;
18455;SDS011;9357;49.900;8.208;2022-07-12T05:30:06;10.07;;;8.90;;
18455;SDS011;9357;49.900;8.208;2022-07-12T05:31:40;13.10;;;9.30;;
18455;SDS011;9357;49.900;8.208;2022-07-12T05:33:13;9.53;;;8.50;;
18455;SDS011;9357;49.900;8.208;2022-07-12T05:34:46;9.20;;;8.30;;
18455;SDS011;9357;49.900;8.208;2022-07-12T05:36:17;9.77;;;7.77;;
18455;SDS011;9357;49.900;8.208;2022-07-12T05:37:50;9.20;;;8.17;;
18455;SDS011;9357;49.900;8.208;2022-07-12T05:39:23;9.37;;;8.37;;
18455;SDS011;9357;49.900;8.208;2022-07-12T05:40:56;9.63;;;8.70;;
18455;SDS011;9357;49.900;8.208;2022-07-12T05:42:29;8.80;;;7.90;;
18455;SDS011;9357;49.900;8.208;2022-07-12T05:44:01;9.60;;;8.60;;
18455;SDS011;9357;49.900;8.208;2022-07-12T05:45:34;9.40;;;7.67;;
18455;SDS011;9357;49.900;8.208;2022-07-12T05:47:09;8.07;;;7.27;;
18455;SDS011;9357;49.900;8.208;2022-07-12T05:48:41;11.47;;;7.97;;
18455;SDS011;9357;49.900;8.208;2022-07-12T05:50:14;9.33;;;7.90;;
18455;SDS011;9357;49.900;8.208;2022-07-12T05:51:47;10.07;;;7.90;;
18455;SDS011;9357;49.900;8.208;2022-07-12T05:53:37;7.80;;;7.00;;
18455;SDS011;9357;49.900;8.208;2022-07-12T05:55:09;7.83;;;6.90;;
18455;SDS011;9357;49.900;8.208;2022-07-12T05:56:42;7.30;;;5.67;;
18455;SDS011;9357;49.900;8.208;2022-07-12T05:58:15;8.30;;;6.10;;
18455;SDS011;9357;49.900;8.208;2022-07-12T05:59:47;6.73;;;6.03;;
18455;SDS011;9357;49.900;8.208;2022-07-12T06:01:19;7.50;;;6.20;;
18455;SDS011;9357;49.900;8.208;2022-07-12T06:02:53;7.23;;;6.53;;
18455;SDS011;9357;49.900;8.208;2022-07-12T06:04:27;6.43;;;5.73;;
18455;SDS011;9357;49.900;8.208;2022-07-12T06:06:00;8.37;;;6.77;;
18455;SDS011;9357;49.900;8.208;2022-07-12T06:07:33;8.07;;;7.00;;
18455;SDS011;9357;49.900;8.208;2022-07-12T06:09:05;6.00;;;5.47;;
18455;SDS011;9357;49.900;8.208;2022-07-12T06:10:38;8.97;;;6.53;;
18455;SDS011;9357;49.900;8.208;2022-07-12T06:12:11;7.20;;;6.50;;
18455;SDS011;9357;49.900;8.208;2022-07-12T06:13:43;7.60;;;6.33;;
18455;SDS011;9357;49.900;8.208;2022-07-12T06:15:16;6.03;;;5.30;;
18455;SDS011;9357;49.900;8.208;2022-07-12T06:16:49;6.03;;;5.43;;
18455;SDS011;9357;49.900;8.208;2022-07-12T06:18:22;7.57;;;5.87;;
18455;SDS011;9357;49.900;8.208;2022-07-12T06:19:55;6.10;;;5.50;;
18455;SDS011;9357;49.900;8.208;2022-07-12T06:21:27;7.23;;;5.50;;
18455;SDS011;9357;49.900;8.208;2022-07-12T06:23:00;6.30;;;4.83;;
18455;SDS011;9357;49.900;8.208;2022-07-12T06:24:33;5.77;;;4.43;;
18455;SDS011;9357;49.900;8.208;2022-07-12T06:26:06;5.27;;;4.77;;
18455;SDS011;9357;49.900;8.208;2022-07-12T06:27:39;5.03;;;4.40;;
18455;SDS011;9357;49.900;8.208;2022-07-12T06:29:11;6.07;;;4.57;;
18455;SDS011;9357;49.900;8.208;2022-07-12T06:30:44;5.13;;;4.10;;
18455;SDS011;9357;49.900;8.208;2022-07-12T06:32:17;5.37;;;4.87;;
18455;SDS011;9357;49.900;8.208;2022-07-12T06:33:51;4.40;;;4.00;;
18455;SDS011;9357;49.900;8.208;2022-07-12T06:35:24;5.63;;;4.40;;
18455;SDS011;9357;49.900;8.208;2022-07-12T06:36:58;5.67;;;5.07;;
18455;SDS011;9357;49.900;8.208;2022-07-12T06:38:31;8.63;;;5.27;;
18455;SDS011;9357;49.900;8.208;2022-07-12T06:40:13;5.53;;;5.03;;
18455;SDS011;9357;49.900;8.208;2022-07-12T06:41:48;6.77;;;5.77;;
18455;SDS011;9357;49.900;8.208;2022-07-12T06:43:20;5.53;;;5.03;;
18455;SDS011;9357;49.900;8.208;2022-07-12T06:44:53;6.47;;;5.67;;
18455;SDS011;9357;49.900;8.208;2022-07-12T06:46:26;7.43;;;4.57;;
18455;SDS011;9357;49.900;8.208;2022-07-12T06:47:59;4.50;;;4.10;;
18455;SDS011;9357;49.900;8.208;2022-07-12T06:49:33;4.20;;;3.80;;
18455;SDS011;9357;49.900;8.208;2022-07-12T06:51:06;4.30;;;4.00;;
18455;SDS011;9357;49.900;8.208;2022-07-12T06:52:39;5.63;;;3.90;;
18455;SDS011;9357;49.900;8.208;2022-07-12T06:54:12;4.87;;;4.47;;
18455;SDS011;9357;49.900;8.208;2022-07-12T06:55:43;4.23;;;3.83;;
18455;SDS011;9357;49.900;8.208;2022-07-12T06:57:16;4.47;;;4.07;;
18455;SDS011;9357;49.900;8.208;2022-07-12T06:58:49;5.33;;;4.93;;
18455;SDS011;9357;49.900;8.208;2022-07-12T07:00:22;5.27;;;4.57;;
18455;SDS011;9357;49.900;8.208;2022-07-12T07:01:55;5.40;;;4.07;;
18455;SDS011;9357;49.900;8.208;2022-07-12T07:03:28;5.23;;;4.77;;
18455;SDS011;9357;49.900;8.208;2022-07-12T07:05:02;5.07;;;4.67;;
18455;SDS011;9357;49.900;8.208;2022-07-12T07:06:36;5.23;;;4.73;;
18455;SDS011;9357;49.900;8.208;2022-07-12T07:08:07;5.00;;;4.60;;
18455;SDS011;9357;49.900;8.208;2022-07-12T07:09:41;5.10;;;4.50;;
18455;SDS011;9357;49.900;8.208;2022-07-12T07:11:14;5.33;;;4.83;;
18455;SDS011;9357;49.900;8.208;2022-07-12T07:12:47;4.00;;;3.70;;
18455;SDS011;9357;49.900;8.208;2022-07-12T07:14:20;4.27;;;3.50;;
18455;SDS011;9357;49.900;8.208;2022-07-12T07:15:53;4.27;;;3.50;;
18455;SDS011;9357;49.900;8.208;2022-07-12T07:17:26;3.30;;;3.00;;
18455;SDS011;9357;49.900;8.208;2022-07-12T07:18:59;3.40;;;3.10;;
18455;SDS011;9357;49.900;8.208;2022-07-12T07:20:33;3.23;;;3.03;;
18455;SDS011;9357;49.900;8.208;2022-07-12T07:22:05;3.30;;;3.00;;
18455;SDS011;9357;49.900;8.208;2022-07-12T07:23:38;2.87;;;2.67;;
18455;SDS011;9357;49.900;8.208;2022-07-12T07:25:12;3.10;;;2.60;;
18455;SDS011;9357;49.900;8.208;2022-07-12T07:26:45;3.30;;;3.00;;
18455;SDS011;9357;49.900;8.208;2022-07-12T07:28:24;3.10;;;2.83;;
18455;SDS011;9357;49.900;8.208;2022-07-12T07:30:16;3.13;;;2.60;;
18455;SDS011;9357;49.900;8.208;2022-07-12T07:32:07;3.47;;;3.17;;
18455;SDS011;9357;49.900;8.208;2022-07-12T07:33:39;3.57;;;2.90;;
18455;SDS011;9357;49.900;8.208;2022-07-12T07:35:12;4.03;;;2.63;;
18455;SDS011;9357;49.900;8.208;2022-07-12T07:36:46;3.00;;;2.73;;
18455;SDS011;9357;49.900;8.208;2022-07-12T07:38:19;2.80;;;2.60;;
18455;SDS011;9357;49.900;8.208;2022-07-12T07:39:52;3.10;;;2.80;;
18455;SDS011;9357;49.900;8.208;2022-07-12T07:41:25;3.07;;;2.87;;
18455;SDS011;9357;49.900;8.208;2022-07-12T07:42:58;3.03;;;2.83;;
18455;SDS011;9357;49.900;8.208;2022-07-12T07:44:31;2.80;;;2.60;;
18455;SDS011;9357;49.900;8.208;2022-07-12T07:46:04;2.90;;;2.20;;
18455;SDS011;9357;49.900;8.208;2022-07-12T07:47:43;2.77;;;2.20;;
18455;SDS011;9357;49.900;8.208;2022-07-12T07:49:37;2.50;;;2.23;;
18455;SDS011;9357;49.900;8.208;2022-07-12T07:51:15;3.43;;;2.73;;
18455;SDS011;9357;49.900;8.208;2022-07-12T07:52:49;2.30;;;2.10;;
18455;SDS011;9357;49.900;8.208;2022-07-12T07:54:23;1.43;;;1.40;;
18455;SDS011;9357;49.900;8.208;2022-07-12T07:55:55;2.63;;;1.90;;
18455;SDS011;9357;49.900;8.208;2022-07-12T07:57:29;2.00;;;1.60;;
18455;SDS011;9357;49.900;8.208;2022-07-12T07:59:02;1.80;;;1.70;;
18455;SDS011;9357;49.900;8.208;2022-07-12T08:00:34;1.73;;;1.70;;
18455;SDS011;9357;49.900;8.208;2022-07-12T08:02:10;1.80;;;1.70;;
18455;SDS011;9357;49.900;8.208;2022-07-12T08:03:43;2.10;;;1.90;;
18455;SDS011;9357;49.900;8.208;2022-07-12T08:05:16;1.90;;;1.80;;
18455;SDS011;9357;49.900;8.208;2022-07-12T08:06:54;1.70;;;1.60;;
18455;SDS011;9357;49.900;8.208;2022-07-12T08:08:30;2.10;;;1.83;;
18455;SDS011;9357;49.900;8.208;2022-07-12T08:10:23;3.23;;;2.03;;
18455;SDS011;9357;49.900;8.208;2022-07-12T08:11:56;2.53;;;1.90;;
18455;SDS011;9357;49.900;8.208;2022-07-12T08:13:29;1.83;;;1.50;;
18455;SDS011;9357;49.900;8.208;2022-07-12T08:15:01;2.00;;;1.60;;
18455;SDS011;9357;49.900;8.208;2022-07-12T08:16:35;1.80;;;1.70;;
18455;SDS011;9357;49.900;8.208;2022-07-12T08:18:08;2.30;;;1.53;;
18455;SDS011;9357;49.900;8.208;2022-07-12T08:19:41;1.67;;;1.57;;
18455;SDS011;9357;49.900;8.208;2022-07-12T08:21:14;1.80;;;1.70;;
18455;SDS011;9357;49.900;8.208;2022-07-12T08:22:47;2.03;;;1.83;;
18455;SDS011;9357;49.900;8.208;2022-07-12T08:24:21;1.73;;;1.60;;
18455;SDS011;9357;49.900;8.208;2022-07-12T08:25:54;2.60;;;2.13;;
18455;SDS011;9357;49.900;8.208;2022-07-12T08:27:26;3.23;;;1.70;;
18455;SDS011;9357;49.900;8.208;2022-07-12T08:28:59;1.80;;;1.70;;
18455;SDS011;9357;49.900;8.208;2022-07-12T08:30:32;1.67;;;1.57;;
18455;SDS011;9357;49.900;8.208;2022-07-12T08:32:10;2.00;;;1.40;;
18455;SDS011;9357;49.900;8.208;2022-07-12T08:33:43;2.20;;;1.70;;
18455;SDS011;9357;49.900;8.208;2022-07-12T08:35:15;2.30;;;2.10;;
18455;SDS011;9357;49.900;8.208;2022-07-12T08:36:48;1.80;;;1.60;;
18455;SDS011;9357;49.900;8.208;2022-07-12T08:38:21;1.70;;;1.60;;
18455;SDS011;9357;49.900;8.208;2022-07-12T08:39:55;1.60;;;1.50;;
18455;SDS011;9357;49.900;8.208;2022-07-12T08:41:28;2.10;;;1.60;;
18455;SDS011;9357;49.900;8.208;2022-07-12T08:43:02;1.60;;;1.50;;
18455;SDS011;9357;49.900;8.208;2022-07-12T08:44:34;2.60;;;1.63;;
18455;SDS011;9357;49.900;8.208;2022-07-12T08:46:08;1.60;;;1.50;;
18455;SDS011;9357;49.900;8.208;2022-07-12T08:47:42;1.70;;;1.60;;
18455;SDS011;9357;49.900;8.208;2022-07-12T08:49:15;1.60;;;1.50;;
18455;SDS011;9357;49.900;8.208;2022-07-12T08:50:59;1.83;;;1.70;;
18455;SDS011;9357;49.900;8.208;2022-07-12T08:52:32;1.90;;;1.80;;
18455;SDS011;9357;49.900;8.208;2022-07-12T08:54:06;3.13;;;1.50;;
18455;SDS011;9357;49.900;8.208;2022-07-12T08:55:41;1.70;;;1.60;;
18455;SDS011;9357;49.900;8.208;2022-07-12T08:57:16;1.60;;;1.50;;
18455;SDS011;9357;49.900;8.208;2022-07-12T08:59:13;1.80;;;1.70;;
18455;SDS011;9357;49.900;8.208;2022-07-12T09:00:47;1.63;;;1.40;;
18455;SDS011;9357;49.900;8.208;2022-07-12T09:02:21;1.90;;;1.23;;
18455;SDS011;9357;49.900;8.208;2022-07-12T09:04:08;1.47;;;1.47;;
18455;SDS011;9357;49.900;8.208;2022-07-12T09:05:46;1.33;;;1.23;;
18455;SDS011;9357;49.900;8.208;2022-07-12T09:07:23;1.63;;;1.50;;
18455;SDS011;9357;49.900;8.208;2022-07-12T09:08:59;1.77;;;1.67;;
18455;SDS011;9357;49.900;8.208;2022-07-12T09:10:32;1.60;;;1.50;;
18455;SDS011;9357;49.900;8.208;2022-07-12T09:12:07;1.40;;;1.30;;
18455;SDS011;9357;49.900;8.208;2022-07-12T09:13:55;1.60;;;1.50;;
18455;SDS011;9357;49.900;8.208;2022-07-12T09:15:29;1.73;;;1.60;;
18455;SDS011;9357;49.900;8.208;2022-07-12T09:17:03;1.37;;;1.30;;
18455;SDS011;9357;49.900;8.208;2022-07-12T09:18:41;1.30;;;1.30;;
18455;SDS011;9357;49.900;8.208;2022-07-12T09:20:16;2.60;;;1.50;;
18455;SDS011;9357;49.900;8.208;2022-07-12T09:21:50;2.13;;;1.40;;
18455;SDS011;9357;49.900;8.208;2022-07-12T09:23:24;2.00;;;1.00;;
18455;SDS011;9357;49.900;8.208;2022-07-12T09:24:56;1.87;;;1.40;;
18455;SDS011;9357;49.900;8.208;2022-07-12T09:26:34;1.50;;;1.40;;
18455;SDS011;9357;49.900;8.208;2022-07-12T09:28:08;1.37;;;1.20;;
18455;SDS011;9357;49.900;8.208;2022-07-12T09:29:47;1.97;;;1.40;;
18455;SDS011;9357;49.900;8.208;2022-07-12T09:31:37;1.30;;;1.27;;
18455;SDS011;9357;49.900;8.208;2022-07-12T09:33:11;1.20;;;1.20;;